Time;durP1;ratioP1;P1;durP2;ratioP2;P2;SDS_P1;SDS_P2;PMS_P1;PMS_P2;Temp;Humidity;BMP_temperature;BMP_pressure;BME280_temperature;BME280_humidity;BME280_pressure;Samples;Min_cycle;Max_cycle;Signal;HPM_P1;HPM_P2
2023/06/28 00:01:44;;;;;;;6.43;3.85;;;;;;;;;;5075150;28;20044;-84
2023/06/28 00:04:29;;;;;;;8.77;4.32;;;;;;;;;;5075158;28;20040;-82
2023/06/28 00:07:15;;;;;;;6.82;3.80;;;;;;;;;;5081232;28;20045;-82
2023/06/28 00:10:01;;;;;;;7.43;3.70;;;;;;;;;;5074439;28;20048;-82
2023/06/28 00:12:46;;;;;;;5.55;3.45;;;;;;;;;;5074808;28;20041;-82
2023/06/28 00:15:32;;;;;;;6.60;3.45;;;;;;;;;;5074852;28;20032;-85
2023/06/28 00:18:17;;;;;;;6.20;4.07;;;;;;;;;;5075194;28;20036;-85
2023/06/28 00:21:03;;;;;;;8.05;3.42;;;;;;;;;;5074797;28;20056;-85
2023/06/28 00:23:48;;;;;;;5.82;3.20;;;;;;;;;;5074379;28;20048;-84
2023/06/28 00:26:34;;;;;;;5.65;3.45;;;;;;;;;;5074749;28;20041;-82
2023/06/28 00:29:22;;;;;;;6.43;3.25;;;;;;;;;;5067198;28;20048;-85
2023/06/28 00:32:08;;;;;;;6.50;3.85;;;;;;;;;;5074585;28;20041;-82
2023/06/28 00:34:53;;;;;;;7.30;3.30;;;;;;;;;;5080336;28;20044;-82
2023/06/28 00:37:41;;;;;;;3.85;2.90;;;;;;;;;;5081192;28;20044;-82
2023/06/28 00:40:26;;;;;;;11.48;3.05;;;;;;;;;;5074917;28;20044;-82
2023/06/28 00:43:12;;;;;;;6.88;2.67;;;;;;;;;;5081541;28;20052;-79
2023/06/28 00:51:22;;;;;;;6.87;2.47;;;;;;;;;;4819033;22;3065984;-80
2023/06/28 00:54:07;;;;;;;6.15;2.90;;;;;;;;;;5123536;27;20372;-79
2023/06/28 00:56:52;;;;;;;5.07;2.70;;;;;;;;;;5132322;28;20042;-78
2023/06/28 00:59:38;;;;;;;7.18;2.60;;;;;;;;;;5123219;27;20044;-79
2023/06/28 01:02:25;;;;;;;7.68;2.60;;;;;;;;;;5116612;28;20036;-79
2023/06/28 01:05:13;;;;;;;4.65;2.30;;;;;;;;;;5123538;27;20040;-79
2023/06/28 01:07:58;;;;;;;8.90;2.80;;;;;;;;;;5123619;27;20047;-81
2023/06/28 01:10:46;;;;;;;4.60;2.22;;;;;;;;;;5132050;28;20476;-80
2023/06/28 01:13:33;;;;;;;4.53;2.90;;;;;;;;;;5131797;28;20035;-79
2023/06/28 01:16:18;;;;;;;6.30;2.40;;;;;;;;;;5131755;28;20043;-80
2023/06/28 01:19:08;;;;;;;2.95;2.20;;;;;;;;;;5131340;28;20039;-80
2023/06/28 01:22:00;;;;;;;4.15;2.50;;;;;;;;;;5131840;28;20043;-81
2023/06/28 01:24:46;;;;;;;4.60;2.30;;;;;;;;;;5131542;28;20387;-79
2023/06/28 01:27:32;;;;;;;4.57;2.30;;;;;;;;;;5131569;28;20039;-79
2023/06/28 01:30:23;;;;;;;3.22;2.50;;;;;;;;;;5131791;28;20043;-79
2023/06/28 01:33:08;;;;;;;5.63;2.10;;;;;;;;;;5122665;27;20395;-78
2023/06/28 01:35:53;;;;;;;4.93;2.50;;;;;;;;;;5122683;27;20043;-78
2023/06/28 01:38:40;;;;;;;6.15;2.30;;;;;;;;;;5122761;27;20039;-78
2023/06/28 01:41:26;;;;;;;6.20;2.03;;;;;;;;;;5131056;28;20391;-78
2023/06/28 01:44:12;;;;;;;3.83;2.47;;;;;;;;;;5122661;27;20035;-79
2023/06/28 01:46:58;;;;;;;3.70;2.25;;;;;;;;;;5131425;28;20043;-79
2023/06/28 01:49:45;;;;;;;6.78;2.60;;;;;;;;;;5131346;28;20047;-78
2023/06/28 01:52:31;;;;;;;7.55;2.53;;;;;;;;;;5118666;28;20039;-79
2023/06/28 01:55:18;;;;;;;5.47;2.40;;;;;;;;;;5122425;27;20468;-81
2023/06/28 01:58:04;;;;;;;3.13;2.30;;;;;;;;;;5130317;28;20047;-78
2023/06/28 02:00:49;;;;;;;3.85;1.92;;;;;;;;;;5118004;27;20047;-78
2023/06/28 02:03:34;;;;;;;8.50;5.28;;;;;;;;;;5117482;28;20047;-78
2023/06/28 02:06:20;;;;;;;8.38;5.13;;;;;;;;;;5117611;28;20388;-79
2023/06/28 02:09:05;;;;;;;46.95;35.03;;;;;;;;;;5116997;28;20040;-80
2023/06/28 02:11:50;;;;;;;42.45;29.90;;;;;;;;;;5117237;28;20388;-80
2023/06/28 02:14:35;;;;;;;52.13;41.30;;;;;;;;;;5108673;28;20479;-79
2023/06/28 02:17:23;;;;;;;12.45;9.48;;;;;;;;;;5116749;28;20043;-80
2023/06/28 02:20:12;;;;;;;8.00;5.88;;;;;;;;;;5116904;28;20039;-79
2023/06/28 02:22:58;;;;;;;3.38;2.58;;;;;;;;;;5108346;28;20044;-79
2023/06/28 02:25:44;;;;;;;6.68;2.65;;;;;;;;;;5116643;28;20047;-80
2023/06/28 02:28:30;;;;;;;5.20;3.72;;;;;;;;;;5116790;28;20043;-79
2023/06/28 02:31:16;;;;;;;3.17;2.38;;;;;;;;;;5107860;28;20496;-79
2023/06/28 02:34:01;;;;;;;8.80;2.38;;;;;;;;;;5116814;28;20040;-79
2023/06/28 02:36:47;;;;;;;3.50;2.13;;;;;;;;;;5116511;28;20055;-79
2023/06/28 02:39:33;;;;;;;6.80;2.30;;;;;;;;;;5116328;28;20040;-79
2023/06/28 02:42:18;;;;;;;3.55;2.20;;;;;;;;;;5116152;28;20387;-79
2023/06/28 02:45:04;;;;;;;2.65;2.00;;;;;;;;;;5116221;28;20039;-79
2023/06/28 02:47:49;;;;;;;4.90;2.72;;;;;;;;;;5107957;28;20040;-78
2023/06/28 02:50:35;;;;;;;4.57;2.60;;;;;;;;;;5107539;28;20059;-78
2023/06/28 02:53:25;;;;;;;5.00;2.85;;;;;;;;;;5095410;28;20412;-78
2023/06/28 02:56:13;;;;;;;3.10;2.47;;;;;;;;;;5101289;28;20392;-78
2023/06/28 02:59:30;;;;;;;3.58;2.17;;;;;;;;;;5077765;28;20040;-79
2023/06/28 03:02:17;;;;;;;4.70;2.55;;;;;;;;;;5101438;28;20476;-78
2023/06/28 03:05:02;;;;;;;3.92;2.05;;;;;;;;;;5101346;28;20044;-78
2023/06/28 03:07:48;;;;;;;4.60;2.45;;;;;;;;;;5101323;28;20040;-78
2023/06/28 03:10:33;;;;;;;5.82;2.58;;;;;;;;;;5100991;28;20060;-78
2023/06/28 03:13:19;;;;;;;7.93;2.65;;;;;;;;;;5100036;28;20032;-79
2023/06/28 03:16:04;;;;;;;4.93;2.60;;;;;;;;;;5101411;28;20036;-78
2023/06/28 03:18:50;;;;;;;7.38;2.60;;;;;;;;;;5100933;28;20056;-78
2023/06/28 03:21:35;;;;;;;4.97;2.50;;;;;;;;;;5101262;28;20048;-79
2023/06/28 03:24:21;;;;;;;3.45;2.17;;;;;;;;;;5101011;28;20036;-79
2023/06/28 03:27:07;;;;;;;5.47;2.50;;;;;;;;;;5094626;28;20052;-79
2023/06/28 03:29:53;;;;;;;3.65;2.38;;;;;;;;;;5095076;28;20044;-78
2023/06/28 03:32:38;;;;;;;4.13;2.50;;;;;;;;;;5095260;28;20480;-78
2023/06/28 03:35:25;;;;;;;4.00;2.30;;;;;;;;;;5100364;28;20044;-78
2023/06/28 03:38:10;;;;;;;7.10;2.42;;;;;;;;;;5101026;28;20044;-78
2023/06/28 03:40:54;;;;;;;11.02;2.60;;;;;;;;;;5094359;28;20040;-79
2023/06/28 03:43:40;;;;;;;4.65;2.28;;;;;;;;;;5100577;28;20048;-79
2023/06/28 03:46:26;;;;;;;2.58;2.13;;;;;;;;;;5100548;28;20036;-79
2023/06/28 03:49:12;;;;;;;8.32;2.40;;;;;;;;;;5094665;28;20044;-79
2023/06/28 03:51:58;;;;;;;3.97;2.28;;;;;;;;;;5098879;28;20404;-79
2023/06/28 03:54:44;;;;;;;6.15;2.35;;;;;;;;;;5100281;28;20039;-78
2023/06/28 03:57:29;;;;;;;5.25;2.15;;;;;;;;;;5094497;28;20028;-78
2023/06/28 04:00:15;;;;;;;3.92;2.35;;;;;;;;;;5099805;28;20040;-79
2023/06/28 04:03:03;;;;;;;2.50;1.98;;;;;;;;;;5101322;28;20036;-79
2023/06/28 04:05:48;;;;;;;5.25;2.50;;;;;;;;;;5093982;28;20036;-78
2023/06/28 04:08:34;;;;;;;3.65;2.22;;;;;;;;;;5094089;28;20384;-78
2023/06/28 04:15:43;;;;;;;6.78;2.20;;;;;;;;;;5095518;28;20036;-78
2023/06/28 04:18:29;;;;;;;4.95;2.67;;;;;;;;;;5100687;28;20488;-78
2023/06/28 04:21:14;;;;;;;7.38;2.30;;;;;;;;;;5093835;28;20044;-78
2023/06/28 04:24:00;;;;;;;4.53;2.50;;;;;;;;;;5093922;28;20047;-79
2023/06/28 04:26:45;;;;;;;5.18;2.55;;;;;;;;;;5094328;28;20048;-76
2023/06/28 04:29:31;;;;;;;3.78;2.65;;;;;;;;;;5093006;28;20040;-78
2023/06/28 04:32:35;;;;;;;6.28;3.22;;;;;;;;;;5091818;28;20052;-78
2023/06/28 04:35:21;;;;;;;3.70;2.03;;;;;;;;;;5093614;28;20048;-78
2023/06/28 04:38:07;;;;;;;7.15;2.25;;;;;;;;;;5094029;28;20052;-78
2023/06/28 04:40:53;;;;;;;3.42;2.25;;;;;;;;;;5093437;28;20044;-77
2023/06/28 04:43:43;;;;;;;6.10;2.22;;;;;;;;;;5093069;28;20032;-78
2023/06/28 04:46:29;;;;;;;4.50;2.60;;;;;;;;;;5093533;28;20044;-80
2023/06/28 04:49:14;;;;;;;5.53;2.22;;;;;;;;;;5093768;28;20040;-80
2023/06/28 04:52:00;;;;;;;5.32;2.38;;;;;;;;;;5093520;28;20044;-79
2023/06/28 04:54:46;;;;;;;6.65;2.72;;;;;;;;;;5094284;28;20052;-78
2023/06/28 04:57:31;;;;;;;4.70;2.15;;;;;;;;;;5093730;28;20481;-79
2023/06/28 05:00:17;;;;;;;3.60;2.30;;;;;;;;;;5100208;28;20044;-78
2023/06/28 05:03:03;;;;;;;5.22;2.33;;;;;;;;;;5093442;28;20032;-78
2023/06/28 05:05:49;;;;;;;6.65;2.50;;;;;;;;;;5093633;28;20396;-78
2023/06/28 05:08:35;;;;;;;4.70;2.30;;;;;;;;;;5093571;28;20048;-79
2023/06/28 05:11:21;;;;;;;3.47;2.25;;;;;;;;;;5093450;28;20040;-79
2023/06/28 05:14:06;;;;;;;4.50;2.67;;;;;;;;;;5099649;28;20044;-79
2023/06/28 05:16:52;;;;;;;6.53;2.83;;;;;;;;;;5093135;28;20044;-78
2023/06/28 05:19:38;;;;;;;4.15;2.65;;;;;;;;;;5093002;28;20044;-78
2023/06/28 05:22:26;;;;;;;3.88;2.45;;;;;;;;;;5092301;28;20040;-78
2023/06/28 05:25:11;;;;;;;6.05;2.80;;;;;;;;;;5093394;28;20036;-79
2023/06/28 05:27:56;;;;;;;5.55;2.42;;;;;;;;;;5092820;28;20044;-80
2023/06/28 05:30:43;;;;;;;3.70;2.33;;;;;;;;;;5093296;28;20044;-79
2023/06/28 05:33:29;;;;;;;6.47;2.80;;;;;;;;;;5093533;28;20051;-78
2023/06/28 05:36:15;;;;;;;2.80;2.33;;;;;;;;;;5094711;28;20044;-79
2023/06/28 05:39:02;;;;;;;4.45;2.80;;;;;;;;;;5097552;28;20044;-78
2023/06/28 05:41:48;;;;;;;7.68;2.90;;;;;;;;;;5096934;28;20465;-79
2023/06/28 05:44:34;;;;;;;4.95;2.60;;;;;;;;;;5097022;28;20056;-79
2023/06/28 05:47:19;;;;;;;6.50;2.47;;;;;;;;;;5096788;28;20472;-78
2023/06/28 05:50:06;;;;;;;4.68;2.40;;;;;;;;;;5096894;28;20052;-79
2023/06/28 05:52:51;;;;;;;9.05;2.75;;;;;;;;;;5095985;28;20044;-79
2023/06/28 05:55:36;;;;;;;6.40;2.53;;;;;;;;;;5096604;28;20056;-78
2023/06/28 05:58:22;;;;;;;5.95;3.15;;;;;;;;;;5096275;28;20048;-79
2023/06/28 06:01:07;;;;;;;5.20;2.97;;;;;;;;;;5095220;28;20052;-78
2023/06/28 06:03:52;;;;;;;5.78;3.80;;;;;;;;;;5094398;28;20040;-78
2023/06/28 06:06:37;;;;;;;7.38;4.28;;;;;;;;;;5096324;28;20043;-78
2023/06/28 06:09:23;;;;;;;4.20;3.35;;;;;;;;;;5096159;28;20036;-78
2023/06/28 06:12:09;;;;;;;5.40;3.67;;;;;;;;;;5096119;28;20052;-78
2023/06/28 06:14:56;;;;;;;7.95;4.35;;;;;;;;;;5102804;28;20480;-78
2023/06/28 06:17:42;;;;;;;6.88;4.07;;;;;;;;;;5096092;28;20051;-78
2023/06/28 06:20:27;;;;;;;7.15;3.28;;;;;;;;;;5096617;28;20497;-78
2023/06/28 06:23:13;;;;;;;4.18;2.70;;;;;;;;;;5096099;28;20040;-77
2023/06/28 06:25:59;;;;;;;6.35;3.35;;;;;;;;;;5094822;28;20048;-79
2023/06/28 06:28:44;;;;;;;4.82;3.22;;;;;;;;;;5094942;28;20044;-79
2023/06/28 06:31:30;;;;;;;5.38;3.22;;;;;;;;;;5096146;28;20048;-80
2023/06/28 06:34:15;;;;;;;5.78;2.60;;;;;;;;;;5096409;28;20044;-79
2023/06/28 06:37:01;;;;;;;5.47;2.70;;;;;;;;;;5096098;28;20048;-78
2023/06/28 06:39:47;;;;;;;4.95;3.67;;;;;;;;;;5095862;28;20435;-78
2023/06/28 06:42:34;;;;;;;4.95;3.00;;;;;;;;;;5096206;28;20060;-78
2023/06/28 06:45:19;;;;;;;8.75;3.35;;;;;;;;;;5095516;28;20044;-78
2023/06/28 06:48:05;;;;;;;4.30;2.85;;;;;;;;;;5095395;28;20044;-80
2023/06/28 06:50:50;;;;;;;7.75;3.45;;;;;;;;;;5102507;28;20044;-78
2023/06/28 06:53:35;;;;;;;6.65;3.05;;;;;;;;;;5113022;28;20043;-76
2023/06/28 06:56:22;;;;;;;10.20;3.92;;;;;;;;;;5113777;28;20043;-78
2023/06/28 06:59:08;;;;;;;4.43;3.03;;;;;;;;;;5113664;28;20044;-79
2023/06/28 07:01:54;;;;;;;7.30;3.58;;;;;;;;;;5121804;28;20043;-78
2023/06/28 07:04:39;;;;;;;13.00;3.65;;;;;;;;;;5113906;28;20036;-78
2023/06/28 07:07:24;;;;;;;5.80;3.50;;;;;;;;;;5115626;28;20040;-76
2023/06/28 07:10:10;;;;;;;6.88;4.18;;;;;;;;;;5114871;28;20047;-76
2023/06/28 07:12:55;;;;;;;6.13;3.47;;;;;;;;;;5115231;28;20043;-78
2023/06/28 07:15:43;;;;;;;8.35;4.60;;;;;;;;;;5116249;28;20044;-77
2023/06/28 07:18:28;;;;;;;12.60;4.55;;;;;;;;;;5116027;28;20047;-77
2023/06/28 07:21:14;;;;;;;6.15;4.15;;;;;;;;;;5115189;28;20073;-76
2023/06/28 07:27:26;;;;;;;7.53;4.07;;;;;;;;;;4465877;22;2062155;-79
2023/06/28 07:30:14;;;;;;;7.20;4.30;;;;;;;;;;5110024;28;20035;-80
2023/06/28 07:33:00;;;;;;;7.45;4.35;;;;;;;;;;5111447;28;20046;-79
2023/06/28 07:35:45;;;;;;;8.35;4.75;;;;;;;;;;5111051;28;20051;-80
2023/06/28 07:38:31;;;;;;;6.93;4.35;;;;;;;;;;5110989;28;20039;-79
2023/06/28 07:41:17;;;;;;;6.35;4.68;;;;;;;;;;5110879;28;20040;-79
2023/06/28 07:44:02;;;;;;;5.82;4.70;;;;;;;;;;5118102;28;20044;-81
2023/06/28 07:46:47;;;;;;;9.23;5.10;;;;;;;;;;5110578;28;20047;-78
2023/06/28 07:49:33;;;;;;;8.45;5.38;;;;;;;;;;5110857;28;20044;-79
2023/06/28 07:52:18;;;;;;;7.18;5.05;;;;;;;;;;5111127;28;20052;-79
2023/06/28 07:55:07;;;;;;;7.82;5.28;;;;;;;;;;5116794;28;20055;-81
2023/06/28 07:57:52;;;;;;;7.30;5.72;;;;;;;;;;5117784;28;20040;-80
2023/06/28 08:00:38;;;;;;;8.70;5.50;;;;;;;;;;5110944;28;20099;-80
2023/06/28 08:03:23;;;;;;;9.68;5.60;;;;;;;;;;5109617;28;20048;-78
2023/06/28 08:06:09;;;;;;;7.57;5.30;;;;;;;;;;5110287;28;20040;-80
2023/06/28 08:08:55;;;;;;;10.25;5.32;;;;;;;;;;5117846;28;20039;-78
2023/06/28 08:11:40;;;;;;;7.93;5.95;;;;;;;;;;5110101;28;20039;-79
2023/06/28 08:14:26;;;;;;;9.60;6.30;;;;;;;;;;5110211;28;20047;-80
2023/06/28 08:17:12;;;;;;;8.88;5.82;;;;;;;;;;5110481;28;20040;-78
2023/06/28 08:19:57;;;;;;;7.25;5.38;;;;;;;;;;5117093;28;20507;-78
2023/06/28 08:22:43;;;;;;;7.93;5.78;;;;;;;;;;5110272;28;20052;-77
2023/06/28 08:25:29;;;;;;;8.00;5.97;;;;;;;;;;5109754;28;20048;-80
2023/06/28 08:28:14;;;;;;;8.57;5.72;;;;;;;;;;5115542;28;20039;-80
2023/06/28 08:31:00;;;;;;;10.70;6.05;;;;;;;;;;5115473;28;20047;-77
2023/06/28 08:33:45;;;;;;;7.93;5.78;;;;;;;;;;5109841;28;20039;-79
2023/06/28 08:36:30;;;;;;;9.85;5.93;;;;;;;;;;5108993;28;20048;-79
2023/06/28 08:39:16;;;;;;;10.02;6.05;;;;;;;;;;5096172;28;20036;-79
2023/06/28 08:42:02;;;;;;;9.27;6.50;;;;;;;;;;5096971;28;20036;-79
2023/06/28 08:44:53;;;;;;;8.73;6.10;;;;;;;;;;5102608;28;20039;-78
2023/06/28 08:47:41;;;;;;;8.25;5.97;;;;;;;;;;5103146;28;20048;-78
2023/06/28 08:50:28;;;;;;;10.35;6.20;;;;;;;;;;5096321;28;20040;-77
2023/06/28 08:53:16;;;;;;;8.50;6.07;;;;;;;;;;5095863;28;20056;-78
2023/06/28 08:56:01;;;;;;;9.40;6.93;;;;;;;;;;5096442;28;20392;-79
2023/06/28 08:58:48;;;;;;;8.23;6.35;;;;;;;;;;5096707;28;20032;-80
2023/06/28 09:06:38;;;;;;;12.15;8.38;;;;;;;;;;5133915;27;20378;-82
2023/06/28 09:09:26;;;;;;;12.13;7.68;;;;;;;;;;5112674;28;20044;-80
2023/06/28 09:12:11;;;;;;;10.30;7.15;;;;;;;;;;5112758;28;20040;-81
2023/06/28 09:14:57;;;;;;;10.15;6.90;;;;;;;;;;5113434;28;20055;-82
2023/06/28 09:17:42;;;;;;;8.68;5.70;;;;;;;;;;5113691;28;20044;-80
2023/06/28 09:20:27;;;;;;;8.50;5.72;;;;;;;;;;5113611;28;20055;-81
2023/06/28 09:23:13;;;;;;;7.35;5.57;;;;;;;;;;5112619;28;20043;-80
2023/06/28 09:25:59;;;;;;;9.35;5.40;;;;;;;;;;5117511;28;20044;-82
2023/06/28 09:28:44;;;;;;;9.30;6.38;;;;;;;;;;5111083;28;20043;-83
2023/06/28 09:31:32;;;;;;;7.10;5.05;;;;;;;;;;5111234;28;20048;-81
2023/06/28 09:34:26;;;;;;;6.88;4.28;;;;;;;;;;5111612;28;20044;-85
2023/06/28 09:37:11;;;;;;;5.82;4.53;;;;;;;;;;5117138;28;20047;-81
2023/06/28 09:39:56;;;;;;;10.10;5.50;;;;;;;;;;5111268;28;20407;-82
2023/06/28 09:42:48;;;;;;;6.93;5.43;;;;;;;;;;5111334;28;20043;-83
2023/06/28 09:45:36;;;;;;;7.05;5.28;;;;;;;;;;5117385;28;20400;-83
2023/06/28 09:48:26;;;;;;;6.28;4.70;;;;;;;;;;5110496;28;20044;-81
2023/06/28 09:51:14;;;;;;;4.97;4.45;;;;;;;;;;5110562;28;20036;-82
2023/06/28 09:54:00;;;;;;;8.57;4.72;;;;;;;;;;5110480;28;20484;-83
2023/06/28 09:56:45;;;;;;;7.72;4.15;;;;;;;;;;5110204;28;20051;-83
2023/06/28 09:59:34;;;;;;;10.20;4.55;;;;;;;;;;5111034;28;20468;-83
2023/06/28 10:02:22;;;;;;;7.60;5.28;;;;;;;;;;5110401;28;20047;-81
2023/06/28 10:05:09;;;;;;;7.25;4.95;;;;;;;;;;5110204;28;20052;-80
2023/06/28 10:08:20;;;;;;;7.70;5.20;;;;;;;;;;5110563;28;20043;-78
2023/06/28 10:11:12;;;;;;;9.48;4.93;;;;;;;;;;5109181;28;20044;-79
2023/06/28 10:13:58;;;;;;;8.05;4.00;;;;;;;;;;5109949;28;20035;-79
2023/06/28 10:16:45;;;;;;;6.45;3.78;;;;;;;;;;5103500;28;20044;-80
2023/06/28 10:19:30;;;;;;;5.88;4.25;;;;;;;;;;5096902;28;20044;-80
2023/06/28 10:22:16;;;;;;;7.28;4.57;;;;;;;;;;5096497;28;20052;-82
2023/06/28 10:25:05;;;;;;;4.75;4.20;;;;;;;;;;5095607;28;20040;-82
2023/06/28 10:27:52;;;;;;;6.68;4.53;;;;;;;;;;5096415;28;20492;-80
2023/06/28 10:30:42;;;;;;;9.40;4.40;;;;;;;;;;5103086;28;20480;-80
2023/06/28 10:33:31;;;;;;;5.30;4.20;;;;;;;;;;5097335;28;20040;-80
2023/06/28 10:36:17;;;;;;;6.05;4.35;;;;;;;;;;5096864;28;20047;-79
2023/06/28 10:39:03;;;;;;;8.20;4.80;;;;;;;;;;5096676;28;20044;-81
2023/06/28 10:41:56;;;;;;;7.35;4.20;;;;;;;;;;5096015;28;20052;-81
2023/06/28 10:44:56;;;;;;;6.25;4.40;;;;;;;;;;5095873;28;20052;-82
2023/06/28 10:47:53;;;;;;;6.55;4.15;;;;;;;;;;5096053;28;20040;-80
2023/06/28 10:50:42;;;;;;;5.03;3.60;;;;;;;;;;5095763;28;20401;-81
2023/06/28 10:53:28;;;;;;;6.75;3.92;;;;;;;;;;5095416;28;20052;-78
2023/06/28 10:56:17;;;;;;;5.55;3.72;;;;;;;;;;5095561;28;20496;-80
2023/06/28 10:59:06;;;;;;;5.63;3.95;;;;;;;;;;5102735;28;20040;-79
2023/06/28 11:01:56;;;;;;;6.38;3.92;;;;;;;;;;5096226;28;20044;-78
2023/06/28 11:04:51;;;;;;;6.47;3.30;;;;;;;;;;5095770;28;20492;-79
2023/06/28 11:07:41;;;;;;;9.60;3.78;;;;;;;;;;5097296;28;20039;-81
2023/06/28 11:10:36;;;;;;;6.22;4.35;;;;;;;;;;5099230;28;20044;-81
2023/06/28 11:13:42;;;;;;;8.00;4.70;;;;;;;;;;5104890;28;20048;-79
2023/06/28 11:16:27;;;;;;;7.85;4.75;;;;;;;;;;5102797;28;20047;-82
2023/06/28 11:19:14;;;;;;;9.02;5.57;;;;;;;;;;5103378;28;20044;-81
2023/06/28 11:22:03;;;;;;;7.22;5.10;;;;;;;;;;5110349;28;20036;-79
2023/06/28 11:24:53;;;;;;;7.28;4.70;;;;;;;;;;5105313;28;20052;-79
2023/06/28 11:27:40;;;;;;;6.65;4.32;;;;;;;;;;5114965;28;20048;-80
2023/06/28 11:30:46;;;;;;;5.53;4.38;;;;;;;;;;5097769;28;20396;-78
2023/06/28 11:33:33;;;;;;;7.15;3.95;;;;;;;;;;5095836;28;20492;-79
2023/06/28 11:36:18;;;;;;;7.95;3.97;;;;;;;;;;5096897;28;20040;-79
2023/06/28 11:39:06;;;;;;;12.40;4.30;;;;;;;;;;5095659;28;20052;-80
2023/06/28 11:41:52;;;;;;;4.30;3.30;;;;;;;;;;5096667;28;20393;-78
2023/06/28 11:44:48;;;;;;;4.60;3.15;;;;;;;;;;5095091;28;20044;-82
2023/06/28 11:47:34;;;;;;;4.82;2.90;;;;;;;;;;5094857;28;20040;-82
2023/06/28 11:50:20;;;;;;;4.28;2.90;;;;;;;;;;5094580;28;20492;-82
2023/06/28 11:53:06;;;;;;;3.50;2.75;;;;;;;;;;5094751;28;20393;-82
2023/06/28 11:55:55;;;;;;;4.68;3.03;;;;;;;;;;5094260;28;20040;-79
2023/06/28 11:58:41;;;;;;;3.95;3.03;;;;;;;;;;5094220;28;20044;-82
2023/06/28 12:01:28;;;;;;;3.28;2.80;;;;;;;;;;5094117;28;20048;-81
2023/06/28 12:04:21;;;;;;;3.08;2.40;;;;;;;;;;5094939;28;20036;-81
2023/06/28 12:07:06;;;;;;;5.07;2.67;;;;;;;;;;5094390;28;20048;-81
2023/06/28 12:09:56;;;;;;;6.30;2.60;;;;;;;;;;5094557;28;20036;-82
2023/06/28 12:12:41;;;;;;;4.75;3.13;;;;;;;;;;5095663;28;20048;-83
2023/06/28 12:15:26;;;;;;;4.93;2.90;;;;;;;;;;5079016;28;20048;-82
2023/06/28 12:18:12;;;;;;;5.13;2.75;;;;;;;;;;5094187;28;20044;-83
2023/06/28 12:21:17;;;;;;;4.25;2.80;;;;;;;;;;5093817;28;20052;-82
2023/06/28 12:24:20;;;;;;;3.67;3.00;;;;;;;;;;5094452;28;20044;-82
2023/06/28 12:27:07;;;;;;;4.10;2.30;;;;;;;;;;5100843;28;20488;-79
2023/06/28 12:29:52;;;;;;;3.40;2.58;;;;;;;;;;5095076;28;20040;-79
2023/06/28 12:32:47;;;;;;;3.15;2.40;;;;;;;;;;5095612;28;20048;-80
2023/06/28 12:35:33;;;;;;;4.85;2.50;;;;;;;;;;5094133;28;20040;-79
2023/06/28 12:38:18;;;;;;;7.93;3.05;;;;;;;;;;5099599;28;20040;-80
2023/06/28 12:41:05;;;;;;;4.97;2.33;;;;;;;;;;5093577;28;20048;-80
2023/06/28 12:43:57;;;;;;;3.38;2.33;;;;;;;;;;5093845;28;20036;-80
2023/06/28 12:46:44;;;;;;;3.03;2.40;;;;;;;;;;5093731;28;20048;-79
2023/06/28 12:49:38;;;;;;;4.20;2.20;;;;;;;;;;5093535;28;20044;-78
2023/06/28 12:52:26;;;;;;;3.90;2.28;;;;;;;;;;5093966;28;20044;-81
2023/06/28 12:55:18;;;;;;;4.32;2.17;;;;;;;;;;5093719;28;20367;-79
2023/06/28 12:58:03;;;;;;;4.68;2.40;;;;;;;;;;5079717;28;20048;-78
2023/06/28 13:00:50;;;;;;;4.15;2.38;;;;;;;;;;5094783;28;20039;-80
2023/06/28 13:03:35;;;;;;;3.15;2.10;;;;;;;;;;5095246;28;20048;-81
2023/06/28 13:06:22;;;;;;;3.33;2.33;;;;;;;;;;5094292;28;20040;-77
2023/06/28 13:09:08;;;;;;;3.00;2.05;;;;;;;;;;5094268;28;20040;-77
2023/06/28 13:11:54;;;;;;;5.03;2.47;;;;;;;;;;5096415;28;20051;-79
2023/06/28 13:14:39;;;;;;;6.57;2.47;;;;;;;;;;5093493;28;20040;-80
2023/06/28 13:17:25;;;;;;;3.72;2.28;;;;;;;;;;5093988;28;20039;-80
2023/06/28 13:20:11;;;;;;;2.80;2.17;;;;;;;;;;5093578;28;20036;-80
2023/06/28 13:22:56;;;;;;;3.67;2.53;;;;;;;;;;5099897;28;20040;-80
2023/06/28 13:25:42;;;;;;;3.47;2.35;;;;;;;;;;5093489;28;20472;-80
2023/06/28 13:28:28;;;;;;;2.90;2.22;;;;;;;;;;5095628;28;20036;-80
2023/06/28 13:31:13;;;;;;;4.03;2.08;;;;;;;;;;5100135;28;20345;-78
2023/06/28 13:33:59;;;;;;;2.22;1.90;;;;;;;;;;5099506;28;20040;-81
2023/06/28 13:36:45;;;;;;;4.63;1.98;;;;;;;;;;5092514;28;20048;-81
2023/06/28 13:39:29;;;;;;;2.70;2.00;;;;;;;;;;5093441;28;20044;-79
2023/06/28 13:42:15;;;;;;;3.20;2.10;;;;;;;;;;5093798;28;20044;-80
2023/06/28 13:45:01;;;;;;;6.05;2.17;;;;;;;;;;5093451;28;20044;-80
2023/06/28 13:47:47;;;;;;;5.63;2.08;;;;;;;;;;5093114;28;20036;-79
2023/06/28 13:50:32;;;;;;;3.30;2.03;;;;;;;;;;5094206;28;20044;-79
2023/06/28 13:53:17;;;;;;;2.60;2.05;;;;;;;;;;5104332;28;20051;-80
2023/06/28 13:56:03;;;;;;;3.83;2.20;;;;;;;;;;5100233;28;20044;-81
2023/06/28 13:58:49;;;;;;;3.08;2.40;;;;;;;;;;5098575;28;20047;-81
2023/06/28 14:01:34;;;;;;;3.67;2.30;;;;;;;;;;5101552;28;20032;-79
2023/06/28 14:04:20;;;;;;;3.20;2.38;;;;;;;;;;5107061;28;20412;-77
2023/06/28 14:07:05;;;;;;;5.80;2.75;;;;;;;;;;5096545;28;20455;-78
2023/06/28 14:09:51;;;;;;;7.47;2.75;;;;;;;;;;5081523;28;20392;-78
2023/06/28 14:12:36;;;;;;;6.63;2.47;;;;;;;;;;5096508;28;20044;-78
2023/06/28 14:15:22;;;;;;;6.05;2.80;;;;;;;;;;5103624;28;20468;-78
2023/06/28 14:18:07;;;;;;;5.72;2.50;;;;;;;;;;5096653;28;20040;-78
2023/06/28 14:20:51;;;;;;;4.82;2.63;;;;;;;;;;5096612;28;20040;-78
2023/06/28 14:23:37;;;;;;;5.97;2.83;;;;;;;;;;5078734;28;20512;-78
2023/06/28 14:26:23;;;;;;;6.82;2.95;;;;;;;;;;5087618;28;20396;-78
2023/06/28 14:29:08;;;;;;;3.97;2.90;;;;;;;;;;5096684;28;20040;-78
2023/06/28 14:31:54;;;;;;;2.95;2.60;;;;;;;;;;5096690;28;20040;-78
2023/06/28 14:34:39;;;;;;;6.38;3.05;;;;;;;;;;5096111;28;20047;-78
2023/06/28 14:37:25;;;;;;;4.00;2.65;;;;;;;;;;5096506;28;20047;-77
2023/06/28 14:40:11;;;;;;;4.57;2.88;;;;;;;;;;5102984;28;20052;-77
2023/06/28 14:42:56;;;;;;;7.18;3.25;;;;;;;;;;5087552;28;20036;-78
2023/06/28 14:45:42;;;;;;;6.00;2.63;;;;;;;;;;5095915;28;20040;-79
2023/06/28 14:48:27;;;;;;;5.40;2.75;;;;;;;;;;5101913;28;20036;-78
2023/06/28 14:51:13;;;;;;;5.45;2.70;;;;;;;;;;5096114;28;20040;-78
2023/06/28 14:53:58;;;;;;;4.00;2.72;;;;;;;;;;5096123;28;20056;-78
2023/06/28 14:56:44;;;;;;;3.95;2.70;;;;;;;;;;5095046;28;20048;-77
2023/06/28 14:59:30;;;;;;;8.52;3.30;;;;;;;;;;5095394;28;20087;-77
2023/06/28 15:02:15;;;;;;;6.60;2.95;;;;;;;;;;5094420;28;20052;-77
2023/06/28 15:05:01;;;;;;;4.93;3.20;;;;;;;;;;5095148;28;20040;-77
2023/06/28 15:07:46;;;;;;;6.55;3.20;;;;;;;;;;5102215;28;20052;-77
2023/06/28 15:10:33;;;;;;;10.90;3.30;;;;;;;;;;5095586;28;20036;-78
2023/06/28 15:13:20;;;;;;;5.40;2.83;;;;;;;;;;5094969;28;20468;-78
2023/06/28 15:16:05;;;;;;;3.95;2.90;;;;;;;;;;5095446;28;20052;-78
2023/06/28 15:18:51;;;;;;;5.68;2.88;;;;;;;;;;5095291;28;20036;-77
2023/06/28 15:21:36;;;;;;;3.45;2.58;;;;;;;;;;5102313;28;20393;-78
2023/06/28 15:24:21;;;;;;;5.82;2.70;;;;;;;;;;5095134;28;20036;-78
2023/06/28 15:27:07;;;;;;;4.43;3.15;;;;;;;;;;5094990;28;20496;-77
2023/06/28 15:29:52;;;;;;;6.40;3.22;;;;;;;;;;5095017;28;20044;-79
2023/06/28 15:32:38;;;;;;;8.57;3.22;;;;;;;;;;5095220;28;20040;-79
2023/06/28 15:35:23;;;;;;;10.52;3.75;;;;;;;;;;5095063;28;20040;-80
2023/06/28 15:38:09;;;;;;;5.50;3.08;;;;;;;;;;5094796;28;20048;-77
2023/06/28 15:40:54;;;;;;;8.07;3.00;;;;;;;;;;5094930;28;20048;-78
2023/06/28 15:43:39;;;;;;;8.65;3.35;;;;;;;;;;5094631;28;20036;-77
2023/06/28 15:46:32;;;;;;;7.65;3.15;;;;;;;;;;5094931;28;20345;-78
2023/06/28 15:49:18;;;;;;;3.65;2.75;;;;;;;;;;5094613;28;20040;-78
2023/06/28 15:52:03;;;;;;;5.28;3.10;;;;;;;;;;5094789;28;20032;-78
2023/06/28 15:54:49;;;;;;;7.85;2.78;;;;;;;;;;5094344;28;20048;-79
2023/06/28 15:57:35;;;;;;;7.03;3.10;;;;;;;;;;5094278;28;20044;-78
2023/06/28 16:00:21;;;;;;;7.65;3.10;;;;;;;;;;5094530;28;20048;-78
2023/06/28 16:03:08;;;;;;;6.45;3.13;;;;;;;;;;5101056;28;20044;-79
2023/06/28 16:05:53;;;;;;;6.82;2.80;;;;;;;;;;5096591;28;20036;-78
2023/06/28 16:08:38;;;;;;;6.93;2.80;;;;;;;;;;5094353;28;20036;-78
2023/06/28 16:11:24;;;;;;;5.47;2.83;;;;;;;;;;5094061;28;20477;-78
2023/06/28 16:14:09;;;;;;;5.00;3.10;;;;;;;;;;5085087;28;20388;-78
2023/06/28 16:16:55;;;;;;;5.85;3.25;;;;;;;;;;5094448;28;20044;-77
2023/06/28 16:19:56;;;;;;;7.57;3.40;;;;;;;;;;5094204;28;20052;-78
2023/06/28 16:22:41;;;;;;;3.38;2.78;;;;;;;;;;5094487;28;20055;-81
2023/06/28 16:25:26;;;;;;;4.93;3.20;;;;;;;;;;5094093;28;20389;-80
2023/06/28 16:28:11;;;;;;;6.15;2.92;;;;;;;;;;5093854;28;20044;-81
2023/06/28 16:31:00;;;;;;;5.22;3.33;;;;;;;;;;5094319;28;20040;-80
2023/06/28 16:33:46;;;;;;;6.28;3.08;;;;;;;;;;5100508;28;20043;-82
2023/06/28 16:36:31;;;;;;;5.65;3.00;;;;;;;;;;5100570;28;20496;-82
2023/06/28 16:39:17;;;;;;;4.82;2.97;;;;;;;;;;5093502;28;20048;-80
2023/06/28 16:42:05;;;;;;;4.88;3.40;;;;;;;;;;5094165;28;20044;-80
2023/06/28 16:44:51;;;;;;;4.32;2.85;;;;;;;;;;5093945;28;20052;-80
2023/06/28 16:47:36;;;;;;;4.88;2.80;;;;;;;;;;5092917;28;20048;-78
2023/06/28 16:50:22;;;;;;;4.30;2.90;;;;;;;;;;5093476;28;20480;-78
2023/06/28 16:53:07;;;;;;;7.60;3.55;;;;;;;;;;5093506;28;20044;-77
2023/06/28 16:55:53;;;;;;;4.65;3.40;;;;;;;;;;5094317;28;20048;-85
2023/06/28 16:58:38;;;;;;;6.07;3.60;;;;;;;;;;5085856;28;20503;-81